createdAt,value
2018-06-30T00:01:37.527Z,5.30
2018-06-30T00:04:14.754Z,5.37
2018-06-30T00:06:51.208Z,5.40
2018-06-30T00:09:28.216Z,5.70
2018-06-30T00:12:05.465Z,5.37
2018-06-30T00:14:42.572Z,5.60
2018-06-30T00:17:19.805Z,5.23
2018-06-30T00:19:57.008Z,5.83
2018-06-30T00:22:33.776Z,5.77
2018-06-30T00:25:10.835Z,5.17
2018-06-30T00:27:47.706Z,5.90
2018-06-30T00:30:25.564Z,6.30
2018-06-30T00:33:03.094Z,5.90
2018-06-30T00:35:39.974Z,5.73
2018-06-30T00:38:17.265Z,6.30
2018-06-30T00:40:55.010Z,4.93
2018-06-30T00:43:31.618Z,7.00
2018-06-30T00:46:08.699Z,5.80
2018-06-30T00:48:45.241Z,5.57
2018-06-30T00:51:21.847Z,5.70
2018-06-30T00:53:58.518Z,5.50
2018-06-30T00:56:35.841Z,5.60
2018-06-30T00:59:13.411Z,5.07
2018-06-30T01:01:50.787Z,5.87
2018-06-30T01:04:28.043Z,5.03
2018-06-30T01:07:05.012Z,6.63
2018-06-30T01:09:42.184Z,5.37
2018-06-30T01:12:18.610Z,6.40
2018-06-30T01:14:55.592Z,6.10
2018-06-30T01:17:32.747Z,6.23
2018-06-30T01:20:09.898Z,5.50
2018-06-30T01:22:46.950Z,5.20
2018-06-30T01:25:23.991Z,5.37
2018-06-30T01:28:00.937Z,5.77
2018-06-30T01:30:38.042Z,6.73
2018-06-30T01:33:14.802Z,7.30
2018-06-30T01:35:51.180Z,6.10
2018-06-30T01:38:28.380Z,5.83
2018-06-30T01:41:05.566Z,6.77
2018-06-30T01:43:42.945Z,7.90
2018-06-30T01:46:19.927Z,6.77
2018-06-30T01:48:57.088Z,6.67
2018-06-30T01:51:34.251Z,8.13
2018-06-30T01:54:11.651Z,6.10
2018-06-30T01:56:49.124Z,6.70
2018-06-30T01:59:26.494Z,6.37
2018-06-30T02:02:03.876Z,7.07
2018-06-30T02:04:41.001Z,8.40
2018-06-30T02:07:18.420Z,7.03
2018-06-30T02:09:55.528Z,6.90
2018-06-30T02:12:32.988Z,7.90
2018-06-30T02:15:10.594Z,6.83
2018-06-30T02:17:47.956Z,8.60
2018-06-30T02:20:25.023Z,8.57
2018-06-30T02:23:02.131Z,8.20
2018-06-30T02:25:38.880Z,7.77
2018-06-30T02:28:16.094Z,7.63
2018-06-30T02:30:53.109Z,8.37
2018-06-30T02:33:29.714Z,7.13
2018-06-30T02:36:06.144Z,6.10
2018-06-30T02:38:43.509Z,7.27
2018-06-30T02:41:20.406Z,7.03
2018-06-30T02:43:58.127Z,7.83
2018-06-30T02:46:35.396Z,6.93
2018-06-30T02:49:13.115Z,7.10
2018-06-30T02:51:50.671Z,7.10
2018-06-30T02:54:28.004Z,6.67
2018-06-30T02:57:06.036Z,7.43
2018-06-30T02:59:45.683Z,6.57
2018-06-30T03:02:23.037Z,5.90
2018-06-30T03:04:59.967Z,6.17
2018-06-30T03:07:37.406Z,7.33
2018-06-30T03:10:14.575Z,6.50
2018-06-30T03:12:52.440Z,7.00
2018-06-30T03:15:29.474Z,4.90
2018-06-30T03:18:07.869Z,6.60
2018-06-30T03:20:45.619Z,6.43
2018-06-30T03:23:22.932Z,6.70
2018-06-30T03:26:01.019Z,7.03
2018-06-30T03:28:38.098Z,6.03
2018-06-30T03:31:14.711Z,6.40
2018-06-30T03:33:51.550Z,6.50
2018-06-30T03:36:29.335Z,6.70
2018-06-30T03:39:07.447Z,6.93
2018-06-30T03:41:44.689Z,5.83
2018-06-30T03:44:21.760Z,6.27
2018-06-30T03:46:58.836Z,6.17
2018-06-30T03:49:36.799Z,6.07
2018-06-30T03:52:13.716Z,5.83
2018-06-30T03:54:50.831Z,6.00
2018-06-30T03:57:28.068Z,6.77
2018-06-30T04:00:05.676Z,5.87
2018-06-30T04:02:42.599Z,6.23
2018-06-30T04:05:20.249Z,6.90
2018-06-30T04:07:57.426Z,5.70
2018-06-30T04:10:35.251Z,6.97
2018-06-30T04:13:12.897Z,8.00
2018-06-30T04:15:50.439Z,7.90
2018-06-30T04:18:27.763Z,6.13
2018-06-30T04:21:06.016Z,7.50
2018-06-30T04:23:43.358Z,6.20
2018-06-30T04:26:21.550Z,6.63
2018-06-30T04:28:59.188Z,7.10
2018-06-30T04:31:35.856Z,6.73
2018-06-30T04:34:12.794Z,7.37
2018-06-30T04:36:49.582Z,7.17
2018-06-30T04:39:26.875Z,7.07
2018-06-30T04:42:04.546Z,6.17
2018-06-30T04:44:42.069Z,6.90
2018-06-30T04:47:19.056Z,5.93
2018-06-30T04:49:55.787Z,6.30
2018-06-30T04:52:32.459Z,6.77
2018-06-30T04:55:09.858Z,8.10
2018-06-30T04:57:46.771Z,7.00
2018-06-30T05:00:24.860Z,6.13
2018-06-30T05:03:02.533Z,8.03
2018-06-30T05:05:40.068Z,6.90
2018-06-30T05:08:17.088Z,7.30
2018-06-30T05:10:53.673Z,6.20
2018-06-30T05:13:30.274Z,8.07
2018-06-30T05:16:07.531Z,7.90
2018-06-30T05:18:44.606Z,7.37
2018-06-30T05:21:21.868Z,8.27
2018-06-30T05:23:58.972Z,6.97
2018-06-30T05:26:36.474Z,6.90
2018-06-30T05:29:12.947Z,6.83
2018-06-30T05:31:49.450Z,8.07
2018-06-30T05:34:26.545Z,7.90
2018-06-30T05:37:03.750Z,7.60
2018-06-30T05:39:41.031Z,7.83
2018-06-30T05:42:18.043Z,7.10
2018-06-30T05:44:55.379Z,7.50
2018-06-30T05:47:32.579Z,8.33
2018-06-30T05:50:09.844Z,8.80
2018-06-30T05:52:48.750Z,7.90
2018-06-30T05:55:26.326Z,7.90
2018-06-30T05:58:03.309Z,8.27
2018-06-30T06:00:40.226Z,7.70
2018-06-30T06:03:16.903Z,7.67
2018-06-30T06:05:54.668Z,7.60
2018-06-30T06:08:31.954Z,7.60
2018-06-30T06:11:08.825Z,7.93
2018-06-30T06:13:46.482Z,6.80
2018-06-30T06:16:23.864Z,7.40
2018-06-30T06:19:00.640Z,6.33
2018-06-30T06:21:37.926Z,7.43
2018-06-30T06:24:15.162Z,7.83
2018-06-30T06:26:52.396Z,7.70
2018-06-30T06:29:30.120Z,8.00
2018-06-30T06:32:07.303Z,6.90
2018-06-30T06:34:44.860Z,6.60
2018-06-30T06:37:21.959Z,5.03
2018-06-30T06:39:59.150Z,6.00
2018-06-30T06:42:36.595Z,7.13
2018-06-30T06:45:13.932Z,7.03
2018-06-30T06:47:51.769Z,6.27
2018-06-30T06:50:28.678Z,6.60
2018-06-30T06:53:06.563Z,6.13
2018-06-30T06:55:43.131Z,5.50
2018-06-30T06:58:20.399Z,6.63
2018-06-30T07:00:57.472Z,5.70
2018-06-30T07:03:34.465Z,4.80
2018-06-30T07:06:11.794Z,4.60
2018-06-30T07:08:49.241Z,6.40
2018-06-30T07:11:26.049Z,4.67
2018-06-30T07:14:02.734Z,4.77
2018-06-30T07:16:40.104Z,6.77
2018-06-30T07:19:17.048Z,6.77
2018-06-30T07:21:54.007Z,5.97
2018-06-30T07:24:31.259Z,4.63
2018-06-30T07:27:08.702Z,4.40
2018-06-30T07:29:46.391Z,4.50
2018-06-30T07:32:23.733Z,4.57
2018-06-30T07:35:00.901Z,3.77
2018-06-30T07:37:38.686Z,4.27
2018-06-30T07:40:15.912Z,4.10
2018-06-30T07:42:52.752Z,3.60
2018-06-30T07:45:31.944Z,3.53
2018-06-30T07:48:09.612Z,3.20
2018-06-30T07:50:47.829Z,3.20
2018-06-30T07:53:25.363Z,3.13
2018-06-30T07:56:02.831Z,2.97
2018-06-30T07:58:40.209Z,3.30
2018-06-30T08:01:18.649Z,3.00
2018-06-30T08:03:55.718Z,2.83
2018-06-30T08:06:32.214Z,3.60
2018-06-30T08:09:10.882Z,2.73
2018-06-30T08:11:47.432Z,3.17
2018-06-30T08:14:24.685Z,3.47
2018-06-30T08:17:01.946Z,2.50
2018-06-30T08:19:38.992Z,2.87
2018-06-30T08:22:16.245Z,3.33
2018-06-30T08:24:54.003Z,2.07
2018-06-30T08:27:30.666Z,2.60
2018-06-30T08:30:07.628Z,2.70
2018-06-30T08:32:44.450Z,2.60
2018-06-30T08:35:22.470Z,2.70
2018-06-30T08:37:59.967Z,3.17
2018-06-30T08:40:37.179Z,2.80
2018-06-30T08:43:15.219Z,2.30
2018-06-30T08:45:52.568Z,2.37
2018-06-30T08:48:30.137Z,2.10
2018-06-30T08:51:07.254Z,1.80
2018-06-30T08:53:44.562Z,2.07
2018-06-30T08:56:21.906Z,1.93
2018-06-30T08:58:58.944Z,2.13
2018-06-30T09:01:36.177Z,2.00
2018-06-30T09:04:13.053Z,1.63
2018-06-30T09:06:50.104Z,2.53
2018-06-30T09:09:27.268Z,1.90
2018-06-30T09:12:03.995Z,2.07
2018-06-30T09:14:44.727Z,1.70
2018-06-30T09:17:21.759Z,2.00
2018-06-30T09:19:59.039Z,2.30
2018-06-30T09:22:36.330Z,1.93
2018-06-30T09:25:13.675Z,2.30
2018-06-30T09:27:50.461Z,2.70
2018-06-30T09:30:28.097Z,2.23
2018-06-30T09:33:05.072Z,2.63
2018-06-30T09:35:42.241Z,1.80
2018-06-30T09:38:19.647Z,2.30
2018-06-30T09:40:56.726Z,2.33
2018-06-30T09:43:33.542Z,1.90
2018-06-30T09:46:10.607Z,2.20
2018-06-30T09:48:48.044Z,1.73
2018-06-30T09:51:25.698Z,1.80
2018-06-30T09:54:02.792Z,2.40
2018-06-30T09:56:39.791Z,1.70
2018-06-30T09:59:17.737Z,1.77
2018-06-30T10:01:54.480Z,2.00
2018-06-30T10:04:31.921Z,1.80
2018-06-30T10:07:09.526Z,1.73
2018-06-30T10:09:46.583Z,2.07
2018-06-30T10:12:23.672Z,1.57
2018-06-30T10:15:01.372Z,2.07
2018-06-30T10:17:38.412Z,2.20
2018-06-30T10:20:15.475Z,2.00
2018-06-30T10:22:53.387Z,2.10
2018-06-30T10:25:31.798Z,1.87
2018-06-30T10:28:09.550Z,2.57
2018-06-30T10:30:47.312Z,1.97
2018-06-30T10:33:24.384Z,2.07
2018-06-30T10:36:01.817Z,1.80
2018-06-30T10:38:38.583Z,2.00
2018-06-30T10:41:16.114Z,1.37
2018-06-30T10:43:52.992Z,1.53
2018-06-30T10:46:29.924Z,1.53
2018-06-30T10:49:07.710Z,1.60
2018-06-30T10:51:45.152Z,1.30
2018-06-30T10:54:21.716Z,1.10
2018-06-30T10:56:59.258Z,1.40
2018-06-30T10:59:36.988Z,1.20
2018-06-30T11:02:14.216Z,1.37
2018-06-30T11:04:51.068Z,1.23
2018-06-30T11:07:28.590Z,1.30
2018-06-30T11:10:06.116Z,1.60
2018-06-30T11:12:44.472Z,1.20
2018-06-30T11:15:21.224Z,1.47
2018-06-30T11:17:58.311Z,1.50
2018-06-30T11:20:35.387Z,1.77
2018-06-30T11:23:12.750Z,1.40
2018-06-30T11:25:49.648Z,1.20
2018-06-30T11:28:26.558Z,1.67
2018-06-30T11:31:03.617Z,2.30
2018-06-30T11:33:41.824Z,1.87
2018-06-30T11:36:19.729Z,1.53
2018-06-30T11:38:56.756Z,1.73
2018-06-30T11:41:33.364Z,2.50
2018-06-30T11:44:10.740Z,1.40
2018-06-30T11:46:47.842Z,1.80
2018-06-30T11:49:25.032Z,1.40
2018-06-30T11:52:02.096Z,1.80
2018-06-30T11:54:39.137Z,2.03
2018-06-30T11:57:15.796Z,2.20
2018-06-30T11:59:53.353Z,1.80
2018-06-30T12:02:30.131Z,1.93
2018-06-30T12:05:08.004Z,2.37
2018-06-30T12:07:44.616Z,1.90
2018-06-30T12:10:21.077Z,2.20
2018-06-30T12:16:01.979Z,2.07
2018-06-30T12:18:38.886Z,1.77
2018-06-30T12:21:15.935Z,1.87
2018-06-30T12:23:53.108Z,1.93
2018-06-30T12:26:30.055Z,1.50
2018-06-30T12:29:06.883Z,1.50
2018-06-30T12:31:43.964Z,1.90
2018-06-30T12:34:21.125Z,1.73
2018-06-30T12:36:58.266Z,1.80
2018-06-30T12:39:35.768Z,2.10
2018-06-30T12:42:12.852Z,2.30
2018-06-30T12:44:50.060Z,1.80
2018-06-30T12:47:27.658Z,1.50
2018-06-30T12:50:04.636Z,1.80
2018-06-30T12:52:41.979Z,2.33
2018-06-30T12:55:19.378Z,1.50
2018-06-30T12:57:56.542Z,1.60
2018-06-30T13:00:34.490Z,1.60
2018-06-30T13:03:12.280Z,1.37
2018-06-30T13:05:49.140Z,1.73
2018-06-30T13:08:25.569Z,1.60
2018-06-30T13:11:02.348Z,1.60
2018-06-30T13:13:39.266Z,1.30
2018-06-30T13:16:16.437Z,2.20
2018-06-30T13:18:53.360Z,1.50
2018-06-30T13:21:30.855Z,2.10
2018-06-30T13:24:07.883Z,2.20
2018-06-30T13:26:45.053Z,1.70
2018-06-30T13:29:21.857Z,2.03
2018-06-30T13:31:59.467Z,1.53
2018-06-30T13:34:35.858Z,2.10
2018-06-30T13:37:12.627Z,1.73
2018-06-30T13:39:49.689Z,1.80
2018-06-30T13:42:27.166Z,1.50
2018-06-30T13:45:04.474Z,1.70
2018-06-30T13:47:41.787Z,1.53
2018-06-30T13:50:18.947Z,1.63
2018-06-30T13:52:56.547Z,2.10
2018-06-30T13:55:33.435Z,1.70
2018-06-30T13:58:10.712Z,1.63
2018-06-30T14:00:48.004Z,1.50
2018-06-30T14:03:25.045Z,1.53
2018-06-30T14:06:03.163Z,1.97
2018-06-30T14:08:41.123Z,1.20
2018-06-30T14:11:17.805Z,1.43
2018-06-30T14:13:55.143Z,1.80
2018-06-30T14:16:32.705Z,1.70
2018-06-30T14:19:09.865Z,1.50
2018-06-30T14:21:46.884Z,1.33
2018-06-30T14:24:24.266Z,1.50
2018-06-30T14:27:01.715Z,1.40
2018-06-30T14:29:38.546Z,1.60
2018-06-30T14:32:15.739Z,1.30
2018-06-30T14:34:53.241Z,1.30
2018-06-30T14:37:31.122Z,2.30
2018-06-30T14:40:09.785Z,1.47
2018-06-30T14:42:47.349Z,1.43
2018-06-30T14:45:24.342Z,1.70
2018-06-30T14:48:01.867Z,1.50
2018-06-30T14:50:39.150Z,1.43
2018-06-30T14:53:16.596Z,1.07
2018-06-30T14:55:53.707Z,3.43
2018-06-30T14:58:30.871Z,1.87
2018-06-30T15:01:08.236Z,2.37
2018-06-30T15:03:45.609Z,1.70
2018-06-30T15:06:22.763Z,1.20
2018-06-30T15:08:59.820Z,1.53
2018-06-30T15:11:38.764Z,2.10
2018-06-30T15:14:16.321Z,1.33
2018-06-30T15:16:53.312Z,1.40
2018-06-30T15:19:31.161Z,1.70
2018-06-30T15:22:08.770Z,1.80
2018-06-30T15:24:45.824Z,1.60
2018-06-30T15:27:22.763Z,1.80
2018-06-30T15:29:59.886Z,1.57
2018-06-30T15:32:37.194Z,1.80
2018-06-30T15:35:14.367Z,1.80
2018-06-30T15:37:51.316Z,5.20
2018-06-30T15:40:28.613Z,1.27
2018-06-30T15:43:05.542Z,1.37
2018-06-30T15:45:43.051Z,1.57
2018-06-30T15:48:19.882Z,1.60
2018-06-30T15:50:57.173Z,1.50
2018-06-30T15:53:34.397Z,1.93
2018-06-30T15:56:11.799Z,1.43
2018-06-30T15:58:48.759Z,1.43
2018-06-30T16:01:26.296Z,1.20
2018-06-30T16:04:03.308Z,1.30
2018-06-30T16:06:40.874Z,1.80
2018-06-30T16:09:17.975Z,1.50
2018-06-30T16:11:55.355Z,1.80
2018-06-30T16:14:32.626Z,1.53
2018-06-30T16:17:09.877Z,1.40
2018-06-30T16:19:46.938Z,1.70
2018-06-30T16:22:24.578Z,1.70
2018-06-30T16:25:01.607Z,1.73
2018-06-30T16:27:38.901Z,1.37
2018-06-30T16:30:16.271Z,1.97
2018-06-30T16:32:53.753Z,1.70
2018-06-30T16:35:31.341Z,1.63
2018-06-30T16:38:08.952Z,1.50
2018-06-30T16:40:46.836Z,1.53
2018-06-30T16:43:24.379Z,1.87
2018-06-30T16:46:01.514Z,1.50
2018-06-30T16:48:38.586Z,1.70
2018-06-30T16:51:15.395Z,1.80
2018-06-30T16:53:52.413Z,1.80
2018-06-30T16:56:29.428Z,1.50
2018-06-30T16:59:06.107Z,1.40
2018-06-30T17:01:43.565Z,1.47
2018-06-30T17:04:21.020Z,2.27
2018-06-30T17:06:58.750Z,1.70
2018-06-30T17:09:36.353Z,2.17
2018-06-30T17:12:13.476Z,1.90
2018-06-30T17:14:51.043Z,2.33
2018-06-30T17:17:28.193Z,1.53
2018-06-30T17:20:05.350Z,1.73
2018-06-30T17:22:42.247Z,1.50
2018-06-30T17:25:19.354Z,1.40
2018-06-30T17:27:56.668Z,1.60
2018-06-30T17:30:33.738Z,1.47
2018-06-30T17:33:10.679Z,1.10
2018-06-30T17:35:47.738Z,1.87
2018-06-30T17:38:24.972Z,1.30
2018-06-30T17:41:02.009Z,1.60
2018-06-30T17:43:38.907Z,1.77
2018-06-30T17:46:16.185Z,1.83
2018-06-30T17:48:53.029Z,1.37
2018-06-30T17:51:31.276Z,1.57
2018-06-30T17:54:08.742Z,1.90
2018-06-30T17:56:46.795Z,1.80
2018-06-30T17:59:24.380Z,1.43
2018-06-30T18:02:01.720Z,1.30
2018-06-30T18:04:38.582Z,1.63
2018-06-30T18:07:15.747Z,2.50
2018-06-30T18:09:52.934Z,1.40
2018-06-30T18:12:29.562Z,1.63
2018-06-30T18:15:06.692Z,1.70
2018-06-30T18:17:44.399Z,1.80
2018-06-30T18:20:24.653Z,2.47
2018-06-30T18:23:01.925Z,1.50
2018-06-30T18:25:39.255Z,1.30
2018-06-30T18:28:16.382Z,1.20
2018-06-30T18:30:53.383Z,1.57
2018-06-30T18:33:31.318Z,1.20
2018-06-30T18:36:08.850Z,1.57
2018-06-30T18:38:45.939Z,1.53
2018-06-30T18:41:23.578Z,1.97
2018-06-30T18:44:00.388Z,1.43
2018-06-30T18:46:37.404Z,1.57
2018-06-30T18:49:14.800Z,2.03
2018-06-30T18:51:51.946Z,1.53
2018-06-30T18:54:28.820Z,1.80
2018-06-30T18:57:06.774Z,1.40
2018-06-30T18:59:44.074Z,1.60
2018-06-30T19:02:21.773Z,1.60
2018-06-30T19:04:59.236Z,1.87
2018-06-30T19:07:36.999Z,1.67
2018-06-30T19:10:14.776Z,1.67
2018-06-30T19:12:52.040Z,1.70
2018-06-30T19:15:29.202Z,1.93
2018-06-30T19:18:06.092Z,2.00
2018-06-30T19:20:43.399Z,1.80
2018-06-30T19:23:20.967Z,1.60
2018-06-30T19:25:59.390Z,1.60
2018-06-30T19:28:36.530Z,1.90
2018-06-30T19:31:14.085Z,3.20
2018-06-30T19:33:51.469Z,3.97
2018-06-30T19:36:28.561Z,1.70
2018-06-30T19:39:08.948Z,2.13
2018-06-30T19:41:46.708Z,2.33
2018-06-30T19:44:23.786Z,2.50
2018-06-30T19:47:01.030Z,2.60
2018-06-30T19:49:38.053Z,2.03
2018-06-30T19:52:15.553Z,1.67
2018-06-30T19:54:53.037Z,2.03
2018-06-30T19:57:30.305Z,2.07
2018-06-30T20:00:07.446Z,2.13
2018-06-30T20:02:44.580Z,1.50
2018-06-30T20:05:21.970Z,3.03
2018-06-30T20:07:59.081Z,2.50
2018-06-30T20:10:36.322Z,2.07
2018-06-30T20:13:13.499Z,2.23
2018-06-30T20:15:51.166Z,2.10
2018-06-30T20:18:28.894Z,2.23
2018-06-30T20:21:05.737Z,2.20
2018-06-30T20:23:42.704Z,2.20
2018-06-30T20:26:19.747Z,2.67
2018-06-30T20:28:56.814Z,2.33
2018-06-30T20:31:33.846Z,2.27
2018-06-30T20:34:10.840Z,3.10
2018-06-30T20:36:47.800Z,2.70
2018-06-30T20:39:24.367Z,2.43
2018-06-30T20:42:03.053Z,2.90
2018-06-30T20:44:40.479Z,2.73
2018-06-30T20:47:17.676Z,2.70
2018-06-30T20:49:54.906Z,2.40
2018-06-30T20:52:32.514Z,2.33
2018-06-30T20:55:09.566Z,2.63
2018-06-30T20:57:48.062Z,2.10
2018-06-30T21:00:26.160Z,2.33
2018-06-30T21:03:02.918Z,2.60
2018-06-30T21:05:40.115Z,2.50
2018-06-30T21:08:17.171Z,3.40
2018-06-30T21:10:54.585Z,3.50
2018-06-30T21:13:31.730Z,2.47
2018-06-30T21:16:09.055Z,3.37
2018-06-30T21:18:46.186Z,2.33
2018-06-30T21:21:23.416Z,1.87
2018-06-30T21:24:00.295Z,2.40
2018-06-30T21:26:37.588Z,3.33
2018-06-30T21:29:14.720Z,2.70
2018-06-30T21:31:51.706Z,2.80
2018-06-30T21:34:27.890Z,2.23
2018-06-30T21:37:04.582Z,2.50
2018-06-30T21:39:41.659Z,2.43
2018-06-30T21:42:19.719Z,3.03
2018-06-30T21:44:57.122Z,3.10
2018-06-30T21:47:34.847Z,1.97
2018-06-30T21:50:12.390Z,2.00
2018-06-30T21:52:49.318Z,2.23
2018-06-30T21:55:26.213Z,2.50
2018-06-30T21:58:03.572Z,3.53
2018-06-30T22:01:52.558Z,3.13
2018-06-30T22:04:30.031Z,2.73
2018-06-30T22:07:07.470Z,2.47
2018-06-30T22:09:44.622Z,2.00
2018-06-30T22:12:22.827Z,1.90
2018-06-30T22:15:00.031Z,2.67
2018-06-30T22:17:37.659Z,6.07
2018-06-30T22:20:14.713Z,3.23
2018-06-30T22:22:51.818Z,3.03
2018-06-30T22:25:28.754Z,3.50
2018-06-30T22:28:05.648Z,6.33
2018-06-30T22:30:42.270Z,4.43
2018-06-30T22:33:19.498Z,2.50
2018-06-30T22:35:57.303Z,1.90
2018-06-30T22:38:34.328Z,2.23
2018-06-30T22:41:11.248Z,2.30
2018-06-30T22:43:47.796Z,1.93
2018-06-30T22:46:24.988Z,2.70
2018-06-30T22:49:02.192Z,1.90
2018-06-30T22:51:39.126Z,2.93
2018-06-30T22:54:16.286Z,2.43
2018-06-30T22:56:53.219Z,1.77
2018-06-30T22:59:30.765Z,2.33
2018-06-30T23:02:08.336Z,2.57
2018-06-30T23:04:45.464Z,1.87
2018-06-30T23:07:22.775Z,1.90
2018-06-30T23:10:00.074Z,2.67
2018-06-30T23:12:37.600Z,1.80
2018-06-30T23:15:14.788Z,3.23
2018-06-30T23:17:52.104Z,3.10
2018-06-30T23:20:29.375Z,2.13
2018-06-30T23:23:09.165Z,2.77
2018-06-30T23:25:45.798Z,2.03
2018-06-30T23:28:22.792Z,2.17
2018-06-30T23:31:00.068Z,1.80
2018-06-30T23:33:37.192Z,1.97
2018-06-30T23:36:14.392Z,1.90
2018-06-30T23:38:51.809Z,2.23
2018-06-30T23:41:29.059Z,2.27
2018-06-30T23:44:06.128Z,1.97
2018-06-30T23:46:43.268Z,1.80
2018-06-30T23:49:20.515Z,2.53
2018-06-30T23:51:57.391Z,1.77
2018-06-30T23:54:34.552Z,2.90
2018-06-30T23:57:11.464Z,2.10
2018-06-30T23:59:48.311Z,2.00
